Terminal Aerodrome Forecast
Issued by NWS

Current Version | Previous Version | Text Only | Print | Product List | Glossary Off
Versions: 1 2 3 4 5 6 7 8 9 10 11 12 13 14 15

000
FTUS42 KILM 162300
TAFCRE
TAF
KCRE 162323Z 1700/1724 08009KT P6SM SKC
     FM170600 03011KT P6SM FEW010 SCT030
     FM171400 05012G19KT P6SM SCT020 BKN040=

USA.gov is the U.S. government's official web portal to all federal, state and local government web resources and services.